Time;durP1;ratioP1;P1;durP2;ratioP2;P2;SDS_P1;SDS_P2;PMS_P1;PMS_P2;Temp;Humidity;BMP_temperature;BMP_pressure;BME280_temperature;BME280_humidity;BME280_pressure;Samples;Min_cycle;Max_cycle;Signal;HPM_P1;HPM_P2
2023/12/17 00:04:44;;;;;;;7.20;5.80;;;;;;;20.54;53.15;102566.94;41741159;28;20034;-74
2023/12/17 00:24:47;;;;;;;9.88;6.30;;;;;;;20.50;52.75;102571.47;41743454;28;20120;-77
2023/12/17 00:44:48;;;;;;;7.47;6.00;;;;;;;20.46;52.52;102562.84;41731239;28;20056;-76
2023/12/17 01:04:49;;;;;;;6.97;5.90;;;;;;;20.45;52.11;102569.00;41721997;28;20046;-75
2023/12/17 01:24:54;;;;;;;8.70;6.38;;;;;;;20.36;52.41;102564.13;41719861;28;20120;-74
2023/12/17 01:44:54;;;;;;;7.93;6.68;;;;;;;20.35;52.45;102562.41;41718631;28;20064;-75
2023/12/17 02:04:55;;;;;;;8.40;6.57;;;;;;;20.35;52.49;102570.31;41712647;28;20063;-76
2023/12/17 02:24:56;;;;;;;7.72;6.32;;;;;;;20.35;52.39;102553.66;41701750;28;20033;-75
2023/12/17 02:44:56;;;;;;;7.20;6.00;;;;;;;20.35;52.26;102543.13;41722912;28;20051;-75
2023/12/17 03:05:01;;;;;;;7.43;5.93;;;;;;;20.35;52.49;102522.94;41711807;28;20053;-76
2023/12/17 03:25:01;;;;;;;6.93;5.82;;;;;;;20.37;52.42;102520.25;41706070;28;20037;-76
2023/12/17 03:45:03;;;;;;;6.53;5.43;;;;;;;20.41;52.00;102525.34;41722837;28;20064;-75
2023/12/17 04:05:04;;;;;;;7.82;5.65;;;;;;;20.38;52.34;102503.53;41738401;28;20041;-74
2023/12/17 04:25:05;;;;;;;5.32;4.80;;;;;;;20.35;52.05;102491.38;41719826;28;20049;-74
2023/12/17 04:45:06;;;;;;;6.03;4.90;;;;;;;20.35;51.70;102499.25;41713662;28;20056;-76
2023/12/17 05:05:07;;;;;;;6.68;4.57;;;;;;;20.36;51.89;102500.09;41733860;28;20072;-76
2023/12/17 05:25:07;;;;;;;5.80;4.40;;;;;;;20.86;50.87;102520.91;41733557;28;20045;-75
2023/12/17 05:45:09;;;;;;;5.85;4.50;;;;;;;21.05;50.50;102531.50;41722026;28;20041;-76
2023/12/17 06:05:11;;;;;;;4.22;3.63;;;;;;;21.22;50.34;102493.88;41700320;28;20065;-75
2023/12/17 06:25:11;;;;;;;4.57;3.45;;;;;;;21.25;49.62;102469.16;41709943;28;20065;-80
2023/12/17 06:45:12;;;;;;;4.25;3.25;;;;;;;21.52;49.71;102476.75;41675742;28;20033;-78
2023/12/17 07:05:12;;;;;;;23.00;18.20;;;;;;;21.80;50.25;102468.47;41691202;28;20099;-74
2023/12/17 07:25:13;;;;;;;23.20;17.83;;;;;;;21.78;48.84;102470.31;41712681;28;20041;-76
2023/12/17 07:45:15;;;;;;;16.98;13.30;;;;;;;21.91;48.23;102473.25;41758816;28;20059;-78
2023/12/17 08:05:17;;;;;;;18.02;12.82;;;;;;;21.88;49.20;102483.91;41743774;28;20504;-74
2023/12/17 08:25:18;;;;;;;15.63;11.95;;;;;;;21.90;48.79;102497.91;41757682;28;20495;-84
2023/12/17 08:45:18;;;;;;;13.45;10.48;;;;;;;21.93;49.17;102518.84;41753247;28;20067;-79
2023/12/17 09:05:18;;;;;;;12.77;9.88;;;;;;;22.05;50.13;102513.00;41731186;28;20046;-75
2023/12/17 09:25:19;;;;;;;14.32;9.70;;;;;;;22.03;49.79;102506.94;41727160;28;20072;-80
2023/12/17 09:45:21;;;;;;;11.57;8.70;;;;;;;22.06;49.44;102484.84;41746593;28;20052;-78
2023/12/17 10:05:23;;;;;;;10.65;7.63;;;;;;;21.72;46.05;102478.53;41721828;28;20064;-76
2023/12/17 10:25:24;;;;;;;7.70;5.80;;;;;;;21.85;44.55;102447.13;41662835;28;20053;-71
2023/12/17 10:45:30;;;;;;;9.05;4.95;;;;;;;22.14;45.21;102423.78;41711915;28;20775;-72
2023/12/17 11:05:31;;;;;;;7.32;4.68;;;;;;;22.32;45.81;102403.53;41736715;28;20614;-72
2023/12/17 11:25:34;;;;;;;6.40;4.43;;;;;;;22.47;46.05;102389.59;41761801;28;20056;-72
2023/12/17 11:45:37;;;;;;;5.25;3.95;;;;;;;22.55;45.92;102387.41;41755985;28;20045;-73
2023/12/17 12:05:37;;;;;;;4.63;3.83;;;;;;;22.58;46.11;102365.25;41741747;28;20045;-72
2023/12/17 12:25:38;;;;;;;3.90;3.45;;;;;;;22.69;45.94;102359.41;41720637;28;20042;-71
2023/12/17 12:45:38;;;;;;;9.27;3.67;;;;;;;21.56;36.08;102380.81;41702724;28;20044;-71
2023/12/17 13:05:39;;;;;;;4.38;3.42;;;;;;;22.64;43.08;102364.09;41756344;28;20112;-71
2023/12/17 13:25:40;;;;;;;4.18;2.97;;;;;;;22.57;44.26;102347.75;41699863;28;20045;-69
2023/12/17 13:45:40;;;;;;;7.45;3.10;;;;;;;22.32;46.14;102348.13;41689889;28;20392;-71
2023/12/17 14:05:40;;;;;;;4.30;3.22;;;;;;;22.16;46.83;102345.41;41706153;28;20049;-71
2023/12/17 14:25:42;;;;;;;8.82;3.85;;;;;;;22.07;45.71;102329.09;41684586;28;20037;-75
2023/12/17 14:45:42;;;;;;;13.10;3.90;;;;;;;22.02;47.63;102324.97;41731783;28;20045;-75
2023/12/17 15:05:42;;;;;;;8.38;4.20;;;;;;;21.92;47.58;102340.41;41694656;28;20067;-74
2023/12/17 15:25:47;;;;;;;6.13;3.40;;;;;;;21.84;48.13;102334.69;41539002;28;20167;-75
2023/12/17 15:45:47;;;;;;;6.53;3.72;;;;;;;21.89;48.26;102324.75;41541844;28;20065;-75
2023/12/17 16:05:48;;;;;;;7.47;4.22;;;;;;;21.72;49.14;102323.78;41566280;28;20061;-76
2023/12/17 16:25:48;;;;;;;8.93;4.50;;;;;;;21.70;49.29;102328.31;41741863;28;20034;-74
2023/12/17 16:45:48;;;;;;;8.65;5.10;;;;;;;21.64;49.76;102327.72;41742262;28;20045;-75
2023/12/17 17:05:49;;;;;;;9.82;5.00;;;;;;;21.72;49.72;102338.78;41725768;28;20057;-78
2023/12/17 17:25:50;;;;;;;7.78;4.68;;;;;;;21.42;47.69;102320.81;41742767;28;20033;-77
2023/12/17 17:45:51;;;;;;;8.45;4.88;;;;;;;21.44;48.88;102319.81;41723259;28;20075;-78
2023/12/17 18:05:52;;;;;;;11.65;5.82;;;;;;;21.64;49.33;102328.59;41720619;28;20037;-77
2023/12/17 18:25:54;;;;;;;15.13;8.90;;;;;;;21.84;54.98;102343.44;41742106;28;20051;-80
2023/12/17 18:45:55;;;;;;;24.23;14.85;;;;;;;21.85;54.09;102313.50;41733604;28;20044;-79
2023/12/17 19:05:57;;;;;;;25.75;17.05;;;;;;;21.99;55.08;102280.31;41711306;28;20114;-74
2023/12/17 19:25:58;;;;;;;25.90;16.98;;;;;;;21.77;54.38;102281.38;41709914;28;20052;-71
2023/12/17 19:45:59;;;;;;;27.42;16.13;;;;;;;21.82;53.71;102266.19;41720676;28;20052;-73
2023/12/17 20:06:00;;;;;;;27.05;14.63;;;;;;;21.81;52.80;102272.38;41736810;28;20518;-75
2023/12/17 20:26:01;;;;;;;20.98;13.15;;;;;;;21.72;52.99;102257.03;41736612;28;20037;-75
2023/12/17 20:46:03;;;;;;;19.95;12.77;;;;;;;21.73;53.27;102248.19;41709376;28;20160;-74
2023/12/17 21:06:04;;;;;;;22.00;11.98;;;;;;;21.15;50.47;102236.91;41714995;28;20477;-74
2023/12/17 21:26:05;;;;;;;20.70;11.15;;;;;;;21.25;51.90;102237.31;41717764;28;20092;-77
2023/12/17 21:46:06;;;;;;;19.88;10.85;;;;;;;21.20;53.14;102232.28;41751784;28;20125;-76
2023/12/17 22:06:06;;;;;;;14.35;10.23;;;;;;;21.09;53.67;102216.13;41727697;28;20037;-77
2023/12/17 22:26:07;;;;;;;15.00;9.90;;;;;;;21.05;53.35;102202.25;41716551;28;20348;-76
2023/12/17 22:46:08;;;;;;;16.75;9.88;;;;;;;21.03;53.05;102198.84;41715017;28;20047;-76
2023/12/17 23:06:08;;;;;;;11.07;8.60;;;;;;;20.99;53.21;102194.66;41730811;28;20048;-76
2023/12/17 23:26:08;;;;;;;11.55;8.88;;;;;;;20.91;53.09;102196.78;41719369;28;20404;-76
2023/12/17 23:46:09;;;;;;;12.10;7.90;;;;;;;20.86;53.10;102183.00;41721799;28;20590;-76
